sensor_id;sensor_type;location;lat;lon;timestamp;pressure;altitude;pressure_sealevel;temperature;humidity
78584;BME280;67880;46.082;18.234;2023-08-01T00:00:20;99127.41;;;18.89;74.31
78584;BME280;67880;46.082;18.234;2023-08-01T00:00:55;99126.34;;;18.90;74.46
78584;BME280;67880;46.082;18.234;2023-08-01T00:01:30;99126.59;;;18.89;74.26
78584;BME280;67880;46.082;18.234;2023-08-01T00:02:03;99123.03;;;18.88;74.74
78584;BME280;67880;46.082;18.234;2023-08-01T00:03:10;99123.22;;;18.87;74.77
78584;BME280;67880;46.082;18.234;2023-08-01T00:03:46;99127.25;;;18.84;74.66
78584;BME280;67880;46.082;18.234;2023-08-01T00:04:20;99124.16;;;18.81;74.46
78584;BME280;67880;46.082;18.234;2023-08-01T00:04:54;99133.16;;;18.81;74.71
78584;BME280;67880;46.082;18.234;2023-08-01T00:05:28;99123.53;;;18.79;74.54
78584;BME280;67880;46.082;18.234;2023-08-01T00:06:03;99131.03;;;18.83;74.62
78584;BME280;67880;46.082;18.234;2023-08-01T00:06:38;99125.66;;;18.77;75.05
78584;BME280;67880;46.082;18.234;2023-08-01T00:07:12;99127.72;;;18.81;74.67
78584;BME280;67880;46.082;18.234;2023-08-01T00:08:56;99127.09;;;18.79;74.54
78584;BME280;67880;46.082;18.234;2023-08-01T00:09:29;99126.03;;;18.80;75.09
78584;BME280;67880;46.082;18.234;2023-08-01T00:10:04;99130.88;;;18.78;74.72
78584;BME280;67880;46.082;18.234;2023-08-01T00:10:41;99125.59;;;18.83;74.62
78584;BME280;67880;46.082;18.234;2023-08-01T00:11:19;99122.72;;;18.78;74.70
78584;BME280;67880;46.082;18.234;2023-08-01T00:12:30;99127.47;;;18.83;73.74
78584;BME280;67880;46.082;18.234;2023-08-01T00:13:39;99130.72;;;18.91;74.06
78584;BME280;67880;46.082;18.234;2023-08-01T00:14:50;99130.88;;;18.97;73.98
78584;BME280;67880;46.082;18.234;2023-08-01T00:15:54;99126.75;;;18.94;73.39
78584;BME280;67880;46.082;18.234;2023-08-01T00:17:15;99123.84;;;18.89;74.10
78584;BME280;67880;46.082;18.234;2023-08-01T00:18:24;99123.22;;;18.87;74.29
78584;BME280;67880;46.082;18.234;2023-08-01T00:18:59;99116.97;;;18.86;74.61
78584;BME280;67880;46.082;18.234;2023-08-01T00:19:34;99113.28;;;18.81;73.67
78584;BME280;67880;46.082;18.234;2023-08-01T00:20:07;99116.84;;;18.81;74.19
78584;BME280;67880;46.082;18.234;2023-08-01T00:20:43;99122.28;;;18.81;73.56
78584;BME280;67880;46.082;18.234;2023-08-01T00:21:18;99117.78;;;18.87;73.81
78584;BME280;67880;46.082;18.234;2023-08-01T00:21:53;99117.19;;;18.85;73.64
78584;BME280;67880;46.082;18.234;2023-08-01T00:23:37;99117.59;;;18.88;73.84
78584;BME280;67880;46.082;18.234;2023-08-01T00:24:48;99110.50;;;18.87;73.56
78584;BME280;67880;46.082;18.234;2023-08-01T00:25:23;99107.97;;;18.86;74.22
78584;BME280;67880;46.082;18.234;2023-08-01T00:25:58;99109.72;;;18.80;74.61
78584;BME280;67880;46.082;18.234;2023-08-01T00:26:34;99106.41;;;18.78;74.50
78584;BME280;67880;46.082;18.234;2023-08-01T00:27:07;99106.41;;;18.78;74.08
78584;BME280;67880;46.082;18.234;2023-08-01T00:27:44;99104.34;;;18.74;74.64
78584;BME280;67880;46.082;18.234;2023-08-01T00:28:18;99106.03;;;18.75;74.65
78584;BME280;67880;46.082;18.234;2023-08-01T00:28:54;99106.88;;;18.75;74.12
78584;BME280;67880;46.082;18.234;2023-08-01T00:29:30;99111.84;;;18.78;75.03
78584;BME280;67880;46.082;18.234;2023-08-01T00:30:06;99106.41;;;18.78;74.36
78584;BME280;67880;46.082;18.234;2023-08-01T00:30:42;99100.97;;;18.78;74.92
78584;BME280;67880;46.082;18.234;2023-08-01T00:31:17;99102.84;;;18.78;74.92
78584;BME280;67880;46.082;18.234;2023-08-01T00:31:51;99102.25;;;18.76;74.47
78584;BME280;67880;46.082;18.234;2023-08-01T00:32:30;99102.25;;;18.76;74.40
78584;BME280;67880;46.082;18.234;2023-08-01T00:33:09;99101.41;;;18.75;74.33
78584;BME280;67880;46.082;18.234;2023-08-01T00:33:47;99099.97;;;18.73;74.60
78584;BME280;67880;46.082;18.234;2023-08-01T00:34:20;99099.38;;;18.71;74.86
78584;BME280;67880;46.082;18.234;2023-08-01T00:34:56;99099.97;;;18.73;75.02
78584;BME280;67880;46.082;18.234;2023-08-01T00:35:31;99094.53;;;18.73;74.80
78584;BME280;67880;46.082;18.234;2023-08-01T00:36:06;99095.59;;;18.72;74.64
78584;BME280;67880;46.082;18.234;2023-08-01T00:36:44;99106.09;;;18.68;75.05
78584;BME280;67880;46.082;18.234;2023-08-01T00:37:19;99101.25;;;18.70;74.45
78584;BME280;67880;46.082;18.234;2023-08-01T00:38:25;99093.53;;;18.67;74.75
78584;BME280;67880;46.082;18.234;2023-08-01T00:39:34;99096.47;;;18.65;74.78
78584;BME280;67880;46.082;18.234;2023-08-01T00:40:41;99102.31;;;18.69;74.72
78584;BME280;67880;46.082;18.234;2023-08-01T00:41:50;99095.03;;;18.63;74.57
78584;BME280;67880;46.082;18.234;2023-08-01T00:42:59;99108.81;;;18.68;74.29
78584;BME280;67880;46.082;18.234;2023-08-01T00:43:33;99096.94;;;18.62;74.90
78584;BME280;67880;46.082;18.234;2023-08-01T00:44:09;99101.91;;;18.65;74.93
78584;BME280;67880;46.082;18.234;2023-08-01T00:44:44;99092.50;;;18.68;74.34
78584;BME280;67880;46.082;18.234;2023-08-01T00:45:20;99096.88;;;18.69;74.74
78584;BME280;67880;46.082;18.234;2023-08-01T00:45:59;99095.63;;;18.65;74.50
78584;BME280;67880;46.082;18.234;2023-08-01T00:46:35;99093.09;;;18.70;74.33
78584;BME280;67880;46.082;18.234;2023-08-01T00:47:11;99095.34;;;18.73;74.23
78584;BME280;67880;46.082;18.234;2023-08-01T00:47:47;99088.03;;;18.74;74.54
78584;BME280;67880;46.082;18.234;2023-08-01T00:48:21;99093.09;;;18.70;74.71
78584;BME280;67880;46.082;18.234;2023-08-01T00:48:55;99100.44;;;18.70;74.74
78584;BME280;67880;46.082;18.234;2023-08-01T00:50:07;99098.91;;;18.74;74.56
78584;BME280;67880;46.082;18.234;2023-08-01T00:50:41;99097.47;;;18.71;74.40
78584;BME280;67880;46.082;18.234;2023-08-01T00:51:16;99088.50;;;18.71;74.54
78584;BME280;67880;46.082;18.234;2023-08-01T00:51:53;99099.38;;;18.71;74.87
78584;BME280;67880;46.082;18.234;2023-08-01T00:52:27;99092.03;;;18.71;74.88
78584;BME280;67880;46.082;18.234;2023-08-01T00:53:03;99099.13;;;18.72;74.26
78584;BME280;67880;46.082;18.234;2023-08-01T00:54:12;99091.03;;;18.65;74.65
78584;BME280;67880;46.082;18.234;2023-08-01T00:54:48;99100.00;;;18.66;75.04
78584;BME280;67880;46.082;18.234;2023-08-01T00:55:22;99097.28;;;18.66;74.50
78584;BME280;67880;46.082;18.234;2023-08-01T00:56:00;99097.72;;;18.70;74.97
78584;BME280;67880;46.082;18.234;2023-08-01T00:56:36;99090.16;;;18.72;74.78
78584;BME280;67880;46.082;18.234;2023-08-01T00:57:11;99088.72;;;18.69;74.21
78584;BME280;67880;46.082;18.234;2023-08-01T00:57:45;99088.72;;;18.69;74.48
78584;BME280;67880;46.082;18.234;2023-08-01T00:58:19;99084.75;;;18.65;74.38
78584;BME280;67880;46.082;18.234;2023-08-01T00:58:53;99087.47;;;18.65;74.38
78584;BME280;67880;46.082;18.234;2023-08-01T00:59:27;99090.81;;;18.67;74.45
78584;BME280;67880;46.082;18.234;2023-08-01T01:00:39;99089.78;;;18.68;74.86
78584;BME280;67880;46.082;18.234;2023-08-01T01:01:15;99084.75;;;18.65;74.62
78584;BME280;67880;46.082;18.234;2023-08-01T01:01:51;99084.13;;;18.70;74.72
78584;BME280;67880;46.082;18.234;2023-08-01T01:02:26;99085.19;;;18.69;74.67
78584;BME280;67880;46.082;18.234;2023-08-01T01:02:59;99094.75;;;18.71;74.07
78584;BME280;67880;46.082;18.234;2023-08-01T01:03:33;99081.75;;;18.73;74.28
78584;BME280;67880;46.082;18.234;2023-08-01T01:04:10;99086.22;;;18.67;74.51
78584;BME280;67880;46.082;18.234;2023-08-01T01:04:46;99084.94;;;18.70;74.24
78584;BME280;67880;46.082;18.234;2023-08-01T01:06:37;99083.28;;;18.69;74.61
78584;BME280;67880;46.082;18.234;2023-08-01T01:07:16;99084.34;;;18.68;74.85
78584;BME280;67880;46.082;18.234;2023-08-01T01:07:52;99078.69;;;18.70;74.66
78584;BME280;67880;46.082;18.234;2023-08-01T01:08:28;99085.53;;;18.72;74.43
78584;BME280;67880;46.082;18.234;2023-08-01T01:09:15;99084.94;;;18.70;74.59
78584;BME280;67880;46.082;18.234;2023-08-01T01:09:50;99085.81;;;18.64;74.68
78584;BME280;67880;46.082;18.234;2023-08-01T01:11:01;99082.28;;;18.63;74.71
78584;BME280;67880;46.082;18.234;2023-08-01T01:11:36;99084.16;;;18.63;74.85
78584;BME280;67880;46.082;18.234;2023-08-01T01:12:09;99085.41;;;18.60;74.90
78584;BME280;67880;46.082;18.234;2023-08-01T01:12:44;99082.09;;;18.58;75.00
78584;BME280;67880;46.082;18.234;2023-08-01T01:13:20;99082.94;;;18.59;74.82
78584;BME280;67880;46.082;18.234;2023-08-01T01:13:55;99091.31;;;18.57;75.29
78584;BME280;67880;46.082;18.234;2023-08-01T01:14:29;99086.13;;;18.56;75.60
78584;BME280;67880;46.082;18.234;2023-08-01T01:15:03;99085.88;;;18.57;75.63
78584;BME280;67880;46.082;18.234;2023-08-01T01:16:47;99091.16;;;18.52;75.55
78584;BME280;67880;46.082;18.234;2023-08-01T01:17:56;99081.75;;;18.55;75.18
78584;BME280;67880;46.082;18.234;2023-08-01T01:19:08;99076.75;;;18.52;75.36
78584;BME280;67880;46.082;18.234;2023-08-01T01:20:23;99080.34;;;18.46;75.77
78584;BME280;67880;46.082;18.234;2023-08-01T01:21:38;99075.44;;;18.54;74.98
78584;BME280;67880;46.082;18.234;2023-08-01T01:22:50;99079.03;;;18.55;75.07
78584;BME280;67880;46.082;18.234;2023-08-01T01:24:05;99078.78;;;18.56;75.13
78584;BME280;67880;46.082;18.234;2023-08-01T01:24:41;99078.56;;;18.58;75.15
78584;BME280;67880;46.082;18.234;2023-08-01T01:25:19;99083.16;;;18.57;74.90
78584;BME280;67880;46.082;18.234;2023-08-01T01:25:57;99077.97;;;18.56;74.64
78584;BME280;67880;46.082;18.234;2023-08-01T01:26:33;99077.56;;;18.52;74.50
78584;BME280;67880;46.082;18.234;2023-08-01T01:27:09;99078.16;;;18.54;74.68
78584;BME280;67880;46.082;18.234;2023-08-01T01:27:48;99066.09;;;18.50;74.95
78584;BME280;67880;46.082;18.234;2023-08-01T01:28:25;99070.25;;;18.53;74.59
78584;BME280;67880;46.082;18.234;2023-08-01T01:29:04;99069.66;;;18.51;74.58
78584;BME280;67880;46.082;18.234;2023-08-01T01:29:40;99062.16;;;18.46;74.68
78584;BME280;67880;46.082;18.234;2023-08-01T01:30:18;99071.53;;;18.50;74.64
78584;BME280;67880;46.082;18.234;2023-08-01T01:30:54;99068.81;;;18.50;74.90
78584;BME280;67880;46.082;18.234;2023-08-01T01:31:30;99070.72;;;18.50;74.56
78584;BME280;67880;46.082;18.234;2023-08-01T01:32:07;99067.28;;;18.54;74.68
78584;BME280;67880;46.082;18.234;2023-08-01T01:32:41;99061.50;;;18.51;74.75
78584;BME280;67880;46.082;18.234;2023-08-01T01:33:17;99065.44;;;18.55;74.88
78584;BME280;67880;46.082;18.234;2023-08-01T01:33:56;99068.97;;;18.55;74.83
78584;BME280;67880;46.082;18.234;2023-08-01T01:34:32;99058.53;;;18.52;74.80
78584;BME280;67880;46.082;18.234;2023-08-01T01:35:07;99062.31;;;18.51;75.14
78584;BME280;67880;46.082;18.234;2023-08-01T01:35:40;99056.28;;;18.49;75.04
78584;BME280;67880;46.082;18.234;2023-08-01T01:36:16;99055.66;;;18.47;75.33
78584;BME280;67880;46.082;18.234;2023-08-01T01:36:51;99056.13;;;18.44;75.24
78584;BME280;67880;46.082;18.234;2023-08-01T01:37:26;99051.75;;;18.43;75.08
78584;BME280;67880;46.082;18.234;2023-08-01T01:38:02;99057.78;;;18.45;74.93
78584;BME280;67880;46.082;18.234;2023-08-01T01:39:17;99064.88;;;18.46;75.37
78584;BME280;67880;46.082;18.234;2023-08-01T01:40:24;99055.72;;;18.40;75.88
78584;BME280;67880;46.082;18.234;2023-08-01T01:41:31;99061.16;;;18.40;75.42
78584;BME280;67880;46.082;18.234;2023-08-01T01:42:38;99061.03;;;18.35;76.04
78584;BME280;67880;46.082;18.234;2023-08-01T01:43:49;99064.94;;;18.39;75.90
78584;BME280;67880;46.082;18.234;2023-08-01T01:44:24;99056.78;;;18.39;75.59
78584;BME280;67880;46.082;18.234;2023-08-01T01:44:59;99057.44;;;18.35;75.80
78584;BME280;67880;46.082;18.234;2023-08-01T01:45:31;99060.41;;;18.33;75.61
78584;BME280;67880;46.082;18.234;2023-08-01T01:47:14;99062.06;;;18.34;76.24
78584;BME280;67880;46.082;18.234;2023-08-01T01:47:49;99059.81;;;18.31;76.08
78584;BME280;67880;46.082;18.234;2023-08-01T01:48:25;99062.94;;;18.28;75.84
78584;BME280;67880;46.082;18.234;2023-08-01T01:48:59;99060.88;;;18.30;76.12
78584;BME280;67880;46.082;18.234;2023-08-01T01:49:33;99066.13;;;18.25;75.98
78584;BME280;67880;46.082;18.234;2023-08-01T01:50:08;99065.31;;;18.25;76.46
78584;BME280;67880;46.082;18.234;2023-08-01T01:50:44;99065.06;;;18.26;76.10
78584;BME280;67880;46.082;18.234;2023-08-01T01:53:22;99062.34;;;18.26;75.91
78584;BME280;67880;46.082;18.234;2023-08-01T01:53:56;99058.56;;;18.27;76.23
78584;BME280;67880;46.082;18.234;2023-08-01T01:54:32;99057.31;;;18.30;75.64
78584;BME280;67880;46.082;18.234;2023-08-01T01:55:07;99063.41;;;18.25;75.94
78584;BME280;67880;46.082;18.234;2023-08-01T01:55:42;99054.28;;;18.20;76.00
78584;BME280;67880;46.082;18.234;2023-08-01T01:57:23;99056.09;;;18.26;75.91
78584;BME280;67880;46.082;18.234;2023-08-01T01:59:04;99062.28;;;18.33;75.68
78584;BME280;67880;46.082;18.234;2023-08-01T01:59:39;99061.69;;;18.31;75.64
78584;BME280;67880;46.082;18.234;2023-08-01T02:00:15;99055.44;;;18.30;75.73
78584;BME280;67880;46.082;18.234;2023-08-01T02:00:49;99057.53;;;18.28;75.58
78584;BME280;67880;46.082;18.234;2023-08-01T02:01:23;99049.59;;;18.27;76.34
78584;BME280;67880;46.082;18.234;2023-08-01T02:01:57;99046.28;;;18.25;76.06
78584;BME280;67880;46.082;18.234;2023-08-01T02:02:31;99048.41;;;18.23;76.38
78584;BME280;67880;46.082;18.234;2023-08-01T02:03:07;99052.78;;;18.24;76.61
78584;BME280;67880;46.082;18.234;2023-08-01T02:03:45;99049.59;;;18.27;76.68
78584;BME280;67880;46.082;18.234;2023-08-01T02:04:20;99055.69;;;18.22;76.55
78584;BME280;67880;46.082;18.234;2023-08-01T02:04:55;99050.88;;;18.24;76.46
78584;BME280;67880;46.082;18.234;2023-08-01T02:05:29;99052.16;;;18.22;76.52
78584;BME280;67880;46.082;18.234;2023-08-01T02:06:05;99044.06;;;18.15;76.17
78584;BME280;67880;46.082;18.234;2023-08-01T02:07:13;99046.72;;;18.22;76.50
78584;BME280;67880;46.082;18.234;2023-08-01T02:07:49;99046.50;;;18.23;76.23
78584;BME280;67880;46.082;18.234;2023-08-01T02:08:23;99046.94;;;18.20;76.90
78584;BME280;67880;46.082;18.234;2023-08-01T02:08:58;99044.47;;;18.19;76.23
78584;BME280;67880;46.082;18.234;2023-08-01T02:09:33;99048.59;;;18.21;76.38
78584;BME280;67880;46.082;18.234;2023-08-01T02:10:09;99051.25;;;18.28;76.31
78584;BME280;67880;46.082;18.234;2023-08-01T02:10:45;99050.66;;;18.26;75.91
78584;BME280;67880;46.082;18.234;2023-08-01T02:11:20;99049.38;;;18.28;75.84
78584;BME280;67880;46.082;18.234;2023-08-01T02:11:55;99055.63;;;18.29;76.15
78584;BME280;67880;46.082;18.234;2023-08-01T02:12:30;99048.94;;;18.31;76.10
78584;BME280;67880;46.082;18.234;2023-08-01T02:13:05;99050.34;;;18.34;75.69
78584;BME280;67880;46.082;18.234;2023-08-01T02:13:39;99044.09;;;18.33;76.16
78584;BME280;67880;46.082;18.234;2023-08-01T02:14:14;99053.31;;;18.32;75.39
78584;BME280;67880;46.082;18.234;2023-08-01T02:14:49;99042.91;;;18.29;75.90
78584;BME280;67880;46.082;18.234;2023-08-01T02:15:24;99046.44;;;18.30;75.76
78584;BME280;67880;46.082;18.234;2023-08-01T02:15:59;99044.31;;;18.32;75.76
78584;BME280;67880;46.082;18.234;2023-08-01T02:17:05;99051.00;;;18.36;75.81
78584;BME280;67880;46.082;18.234;2023-08-01T02:17:39;99049.31;;;18.35;76.20
78584;BME280;67880;46.082;18.234;2023-08-01T02:18:13;99045.75;;;18.34;75.55
78584;BME280;67880;46.082;18.234;2023-08-01T02:19:20;99045.38;;;18.31;75.45
78584;BME280;67880;46.082;18.234;2023-08-01T02:19:55;99040.78;;;18.31;75.97
78584;BME280;67880;46.082;18.234;2023-08-01T02:20:33;99045.63;;;18.29;75.50
78584;BME280;67880;46.082;18.234;2023-08-01T02:21:08;99048.69;;;18.33;76.33
78584;BME280;67880;46.082;18.234;2023-08-01T02:21:43;99044.31;;;18.32;75.81
78584;BME280;67880;46.082;18.234;2023-08-01T02:22:18;99052.25;;;18.33;75.94
78584;BME280;67880;46.082;18.234;2023-08-01T02:22:58;99042.66;;;18.31;76.51
78584;BME280;67880;46.082;18.234;2023-08-01T02:23:33;99048.69;;;18.33;75.93
78584;BME280;67880;46.082;18.234;2023-08-01T02:24:09;99048.28;;;18.36;76.42
78584;BME280;67880;46.082;18.234;2023-08-01T02:24:43;99053.47;;;18.37;75.87
78584;BME280;67880;46.082;18.234;2023-08-01T02:25:17;99048.28;;;18.36;75.82
78584;BME280;67880;46.082;18.234;2023-08-01T02:25:50;99048.28;;;18.36;75.79
78584;BME280;67880;46.082;18.234;2023-08-01T02:26:55;99045.16;;;18.32;76.03
78584;BME280;67880;46.082;18.234;2023-08-01T02:28:04;99046.66;;;18.28;75.89
78584;BME280;67880;46.082;18.234;2023-08-01T02:28:37;99044.56;;;18.30;76.22
78584;BME280;67880;46.082;18.234;2023-08-01T02:29:13;99049.75;;;18.32;75.88
78584;BME280;67880;46.082;18.234;2023-08-01T02:29:48;99045.00;;;18.27;75.96
78584;BME280;67880;46.082;18.234;2023-08-01T02:30:25;99039.56;;;18.27;76.27
78584;BME280;67880;46.082;18.234;2023-08-01T02:31:36;99037.59;;;18.34;75.77
78584;BME280;67880;46.082;18.234;2023-08-01T02:32:11;99029.84;;;18.38;75.54
78584;BME280;67880;46.082;18.234;2023-08-01T02:33:19;99030.50;;;18.33;75.99
78584;BME280;67880;46.082;18.234;2023-08-01T02:33:53;99034.28;;;18.32;76.30
78584;BME280;67880;46.082;18.234;2023-08-01T02:34:28;99032.16;;;18.34;75.78
78584;BME280;67880;46.082;18.234;2023-08-01T02:35:02;99038.28;;;18.30;75.81
78584;BME280;67880;46.082;18.234;2023-08-01T02:35:35;99032.22;;;18.28;76.00
78584;BME280;67880;46.082;18.234;2023-08-01T02:36:12;99035.34;;;18.31;75.89
78584;BME280;67880;46.082;18.234;2023-08-01T02:36:47;99038.66;;;18.33;76.06
78584;BME280;67880;46.082;18.234;2023-08-01T02:37:22;99037.84;;;18.33;75.68
78584;BME280;67880;46.082;18.234;2023-08-01T02:37:56;99035.50;;;18.36;75.67
78584;BME280;67880;46.082;18.234;2023-08-01T02:38:31;99032.56;;;18.38;75.97
78584;BME280;67880;46.082;18.234;2023-08-01T02:40:15;99027.34;;;18.36;76.12
78584;BME280;67880;46.082;18.234;2023-08-01T02:40:49;99023.88;;;18.29;76.25
78584;BME280;67880;46.082;18.234;2023-08-01T02:41:24;99031.56;;;18.32;75.80
78584;BME280;67880;46.082;18.234;2023-08-01T02:41:56;99028.41;;;18.35;76.25
78584;BME280;67880;46.082;18.234;2023-08-01T02:42:31;99027.94;;;18.38;76.01
78584;BME280;67880;46.082;18.234;2023-08-01T02:43:04;99025.41;;;18.44;75.96
78584;BME280;67880;46.082;18.234;2023-08-01T02:43:39;99023.75;;;18.43;75.75
78584;BME280;67880;46.082;18.234;2023-08-01T02:44:46;99027.06;;;18.45;75.38
78584;BME280;67880;46.082;18.234;2023-08-01T02:45:18;99031.44;;;18.46;75.40
78584;BME280;67880;46.082;18.234;2023-08-01T02:46:27;99025.16;;;18.45;75.31
78584;BME280;67880;46.082;18.234;2023-08-01T02:47:38;99025.31;;;18.50;74.91
78584;BME280;67880;46.082;18.234;2023-08-01T02:48:12;99010.50;;;18.46;74.83
78584;BME280;67880;46.082;18.234;2023-08-01T02:48:48;99020.19;;;18.42;75.14
78584;BME280;67880;46.082;18.234;2023-08-01T02:49:55;99025.56;;;18.49;74.76
78584;BME280;67880;46.082;18.234;2023-08-01T02:50:28;99018.66;;;18.46;74.63
78584;BME280;67880;46.082;18.234;2023-08-01T02:51:02;99017.41;;;18.49;75.06
78584;BME280;67880;46.082;18.234;2023-08-01T02:51:39;99017.47;;;18.42;74.67
78584;BME280;67880;46.082;18.234;2023-08-01T02:52:14;99017.25;;;18.44;74.91
78584;BME280;67880;46.082;18.234;2023-08-01T02:52:49;99022.44;;;18.45;74.65
78584;BME280;67880;46.082;18.234;2023-08-01T02:53:24;99016.53;;;18.48;75.17
78584;BME280;67880;46.082;18.234;2023-08-01T02:54:31;99016.53;;;18.48;74.89
78584;BME280;67880;46.082;18.234;2023-08-01T02:55:05;99017.25;;;18.44;75.40
78584;BME280;67880;46.082;18.234;2023-08-01T02:55:39;99020.56;;;18.46;74.65
78584;BME280;67880;46.082;18.234;2023-08-01T02:56:15;99015.59;;;18.43;74.98
78584;BME280;67880;46.082;18.234;2023-08-01T02:56:49;99018.50;;;18.41;75.35
78584;BME280;67880;46.082;18.234;2023-08-01T02:57:24;99014.75;;;18.42;74.82
78584;BME280;67880;46.082;18.234;2023-08-01T02:58:02;99006.81;;;18.40;74.78
78584;BME280;67880;46.082;18.234;2023-08-01T02:58:37;99013.16;;;18.34;75.24
78584;BME280;67880;46.082;18.234;2023-08-01T02:59:10;99016.09;;;18.33;75.14
78584;BME280;67880;46.082;18.234;2023-08-01T03:00:54;99002.19;;;18.41;75.07
78584;BME280;67880;46.082;18.234;2023-08-01T03:01:29;99013.16;;;18.34;75.28
78584;BME280;67880;46.082;18.234;2023-08-01T03:02:05;99013.78;;;18.36;75.82
78584;BME280;67880;46.082;18.234;2023-08-01T03:02:39;99010.59;;;18.39;74.71
78584;BME280;67880;46.082;18.234;2023-08-01T03:03:15;98996.63;;;18.36;74.40
78584;BME280;67880;46.082;18.234;2023-08-01T03:03:49;99006.66;;;18.54;72.11
78584;BME280;67880;46.082;18.234;2023-08-01T03:04:25;99007.47;;;18.54;73.54
78584;BME280;67880;46.082;18.234;2023-08-01T03:05:20;99009.59;;;18.52;74.25
78584;BME280;67880;46.082;18.234;2023-08-01T03:05:55;99013.78;;;18.55;74.31
78584;BME280;67880;46.082;18.234;2023-08-01T03:06:28;99004.75;;;18.54;74.08
78584;BME280;67880;46.082;18.234;2023-08-01T03:07:00;99004.75;;;18.54;73.64
78584;BME280;67880;46.082;18.234;2023-08-01T03:08:44;99006.66;;;18.54;73.83
78584;BME280;67880;46.082;18.234;2023-08-01T03:09:18;99008.34;;;18.55;74.11
78584;BME280;67880;46.082;18.234;2023-08-01T03:09:51;99001.59;;;18.57;73.42
78584;BME280;67880;46.082;18.234;2023-08-01T03:10:25;98999.47;;;18.59;73.47
78584;BME280;67880;46.082;18.234;2023-08-01T03:11:11;99004.56;;;18.56;73.38
78584;BME280;67880;46.082;18.234;2023-08-01T03:11:45;98994.28;;;18.58;73.40
78584;BME280;67880;46.082;18.234;2023-08-01T03:12:18;99003.72;;;18.55;73.69
78584;BME280;67880;46.082;18.234;2023-08-01T03:12:52;99006.72;;;18.47;74.30
78584;BME280;67880;46.082;18.234;2023-08-01T03:13:28;99002.59;;;18.45;73.67
78584;BME280;67880;46.082;18.234;2023-08-01T03:14:03;99005.00;;;18.53;73.56
78584;BME280;67880;46.082;18.234;2023-08-01T03:14:37;99003.94;;;18.54;72.99
78584;BME280;67880;46.082;18.234;2023-08-01T03:15:11;99008.53;;;18.53;73.73
78584;BME280;67880;46.082;18.234;2023-08-01T03:15:46;99005.38;;;18.56;73.98
78584;BME280;67880;46.082;18.234;2023-08-01T03:16:21;99008.25;;;18.61;73.37
78584;BME280;67880;46.082;18.234;2023-08-01T03:17:29;99002.31;;;18.71;72.48
78584;BME280;67880;46.082;18.234;2023-08-01T03:18:04;99002.06;;;18.73;72.42
78584;BME280;67880;46.082;18.234;2023-08-01T03:18:39;98998.09;;;18.75;72.61
78584;BME280;67880;46.082;18.234;2023-08-01T03:19:14;99005.19;;;18.76;72.36
78584;BME280;67880;46.082;18.234;2023-08-01T03:19:52;99004.94;;;18.78;71.79
78584;BME280;67880;46.082;18.234;2023-08-01T03:20:26;99004.94;;;18.78;72.00
78584;BME280;67880;46.082;18.234;2023-08-01T03:21:01;98999.88;;;18.81;71.65
78584;BME280;67880;46.082;18.234;2023-08-01T03:22:10;98991.13;;;18.79;71.90
78584;BME280;67880;46.082;18.234;2023-08-01T03:22:44;98996.56;;;18.79;72.27
78584;BME280;67880;46.082;18.234;2023-08-01T03:23:19;99006.25;;;18.75;72.26
78584;BME280;67880;46.082;18.234;2023-08-01T03:23:53;99005.78;;;18.78;71.99
78584;BME280;67880;46.082;18.234;2023-08-01T03:24:27;99002.38;;;18.83;72.22
78584;BME280;67880;46.082;18.234;2023-08-01T03:25:03;98998.59;;;18.84;71.83
78584;BME280;67880;46.082;18.234;2023-08-01T03:25:42;99002.97;;;18.85;71.83
78584;BME280;67880;46.082;18.234;2023-08-01T03:26:15;98998.81;;;18.82;71.80
78584;BME280;67880;46.082;18.234;2023-08-01T03:28:00;98999.34;;;18.73;72.21
78584;BME280;67880;46.082;18.234;2023-08-01T03:29:44;98996.69;;;18.66;72.94
78584;BME280;67880;46.082;18.234;2023-08-01T03:30:51;99000.56;;;18.77;72.43
78584;BME280;67880;46.082;18.234;2023-08-01T03:32:04;98997.63;;;18.78;72.61
78584;BME280;67880;46.082;18.234;2023-08-01T03:33:18;98995.56;;;18.74;72.41
78584;BME280;67880;46.082;18.234;2023-08-01T03:34:27;98995.97;;;18.77;72.70
78584;BME280;67880;46.082;18.234;2023-08-01T03:35:03;99000.34;;;18.78;72.09
78584;BME280;67880;46.082;18.234;2023-08-01T03:35:39;98988.03;;;18.76;72.38
78584;BME280;67880;46.082;18.234;2023-08-01T03:36:14;98990.28;;;18.79;72.34
78584;BME280;67880;46.082;18.234;2023-08-01T03:36:50;98989.31;;;18.73;71.81
78584;BME280;67880;46.082;18.234;2023-08-01T03:37:25;98998.09;;;18.75;72.07
78584;BME280;67880;46.082;18.234;2023-08-01T03:38:00;98994.63;;;18.68;72.78
78584;BME280;67880;46.082;18.234;2023-08-01T03:38:35;98994.75;;;18.73;72.63
78584;BME280;67880;46.082;18.234;2023-08-01T03:39:08;99002.69;;;18.75;73.07
78584;BME280;67880;46.082;18.234;2023-08-01T03:39:43;98999.34;;;18.73;72.72
78584;BME280;67880;46.082;18.234;2023-08-01T03:40:17;99001.63;;;18.76;72.87
78584;BME280;67880;46.082;18.234;2023-08-01T03:40:53;99003.28;;;18.77;72.91
78584;BME280;67880;46.082;18.234;2023-08-01T03:42:04;98994.16;;;18.71;73.11
78584;BME280;67880;46.082;18.234;2023-08-01T03:43:15;98994.38;;;18.70;73.07
78584;BME280;67880;46.082;18.234;2023-08-01T03:43:50;99005.03;;;18.71;73.22
78584;BME280;67880;46.082;18.234;2023-08-01T03:44:25;99002.06;;;18.73;73.90
78584;BME280;67880;46.082;18.234;2023-08-01T03:45:00;99003.59;;;18.69;73.29
78584;BME280;67880;46.082;18.234;2023-08-01T03:45:36;99007.78;;;18.64;73.80
78584;BME280;67880;46.082;18.234;2023-08-01T03:46:10;98997.53;;;18.66;73.56
78584;BME280;67880;46.082;18.234;2023-08-01T03:46:45;98994.63;;;18.68;73.36
78584;BME280;67880;46.082;18.234;2023-08-01T03:47:22;99003.97;;;18.72;73.55
78584;BME280;67880;46.082;18.234;2023-08-01T03:49:06;99003.84;;;18.60;73.58